Latest Weather Observations for Mildura

IDV60801

Issued at 5:12 pm EST Saturday 20 April 2024 (issued every 10 minutes, with the page automatically refreshed every 10 minutes)

About weather observations | Map of weather stations | Latest weather observations for VIC | Other Formats
Station Details ID: 076031 Name: MILDURA AIRPORT Lat: -34.24 Lon: 142.09 Height: 50.0 m
Data from the previous 72 hours. | See also: Recent months at Mildura
Date/Time
EST
Temp
°C
App
Temp
°C
Dew
Point
°C
Rel
Hum
%
Delta-T
°C
Wind Press
QNH
hPa
Press
MSL
hPa
Rain since
9am
mm
Dir  Spd
km/h
Gust
km/h
Spd
kts
Gust
kts
20/05:00pm 21.8 16.9 2.0 27 9.2 SSE 17 28 9 15 1027.6 1027.5 0.0
20/04:30pm 22.5 18.2 3.1 28 9.3 S 15 26 8 14 1027.6 1027.5 0.0
20/04:00pm 22.4 17.8 3.5 29 9.1 S 17 26 9 14 1027.6 1027.5 0.0
20/03:30pm 22.4 18.2 4.0 30 9.0 S 15 24 8 13 1027.4 1027.3 0.0
20/03:00pm 22.6 17.9 5.1 32 8.7 S 19 26 10 14 1027.2 1027.1 0.0
20/02:30pm 22.7 18.5 5.6 33 8.6 S 17 24 9 13 1027.3 1027.2 0.0
20/02:00pm 22.0 17.7 5.4 34 8.2 SSE 17 26 9 14 1027.5 1027.4 0.0
20/01:30pm 21.6 17.4 5.9 36 7.9 SSE 17 26 9 14 1027.9 1027.8 0.0
20/01:00pm 21.3 17.2 6.0 37 7.6 S 17 28 9 15 1028.4 1028.3 0.0
20/12:30pm 20.8 17.6 6.7 40 7.2 SSE 13 20 7 11 1028.8 1028.7 0.0
20/12:00pm 20.0 16.5 7.1 43 6.5 SSE 15 20 8 11 1029.2 1029.1 0.0
20/11:30am 19.6 16.1 7.4 45 6.2 SE 15 22 8 12 1029.5 1029.4 0.0
20/11:00am 18.0 14.5 7.4 50 5.3 SE 15 20 8 11 1029.6 1029.5 0.0
20/10:30am 17.3 14.0 7.9 54 4.8 SSE 15 22 8 12 1029.9 1029.8 0.0
20/10:00am 16.0 12.6 7.7 58 4.1 SE 15 20 8 11 1029.6 1029.5 0.0
20/09:30am 14.4 10.3 7.7 64 3.3 SE 19 26 10 14 1029.6 1029.5 0.0
20/09:00am 13.1 9.4 7.8 70 2.6 SSE 17 28 9 15 1029.6 1029.5 0.0
20/08:30am 11.4 7.9 7.3 76 2.0 SSE 15 26 8 14 1029.3 1029.2 0.0
20/08:00am 9.6 6.8 6.9 83 1.3 S 11 19 6 10 1029.0 1028.9 0.0
20/07:30am 8.5 5.2 6.5 87 0.9 S 13 17 7 9 1028.5 1028.4 0.0
20/07:00am 8.3 5.4 6.3 87 0.9 S 11 17 6 9 1028.2 1028.1 0.0
20/06:30am 8.4 5.4 6.2 86 1.0 S 11 19 6 10 1027.9 1027.8 0.0
20/06:00am 8.5 5.1 6.0 84 1.1 S 13 19 7 10 1027.5 1027.4 0.0
20/05:30am 8.6 5.2 5.9 83 1.2 S 13 19 7 10 1027.0 1026.9 0.0
20/05:00am 8.9 5.9 5.8 81 1.4 S 11 17 6 9 1026.7 1026.6 0.0
20/04:30am 9.4 6.4 5.9 79 1.6 S 11 17 6 9 1026.6 1026.5 0.0
20/04:00am 9.7 6.7 5.9 77 1.7 S 11 15 6 8 1026.6 1026.5 0.0
20/03:30am 10.3 7.3 5.9 74 2.0 S 11 17 6 9 1026.4 1026.3 0.0
20/03:00am 10.9 7.5 6.1 72 2.2 S 13 19 7 10 1026.5 1026.4 0.0
20/02:30am 11.3 7.9 6.0 70 2.5 S 13 19 7 10 1026.6 1026.5 0.0
20/02:00am 11.3 7.8 5.6 68 2.6 S 13 20 7 11 1026.7 1026.6 0.0
20/01:30am 11.6 8.1 5.5 66 2.8 S 13 17 7 9 1026.8 1026.7 0.0
20/01:00am 12.0 8.4 5.2 63 3.1 S 13 20 7 11 1026.6 1026.5 0.0
20/12:30am 12.4 8.8 5.1 61 3.4 S 13 17 7 9 1026.4 1026.3 0.0
20/12:00am 12.7 9.1 4.9 59 3.6 S 13 22 7 12 1026.5 1026.4 0.0
 
Date/Time
EST
Temp
°C
App
Temp
°C
Dew
Point
°C
Rel
Hum
%
Delta-T
°C
Wind Press
QNH
hPa
Press
MSL
hPa
Rain since
9am
mm
Dir  Spd
km/h
Gust
km/h
Spd
kts
Gust
kts
19/11:30pm 12.6 9.0 5.1 60 3.5 SSW 13 20 7 11 1026.4 1026.3 0.0
19/11:00pm 13.3 10.1 5.0 57 3.8 S 11 17 6 9 1026.1 1026.0 0.0
19/10:30pm 13.6 10.4 5.0 56 4.0 S 11 19 6 10 1026.2 1026.1 0.0
19/10:00pm 14.1 10.9 4.9 54 4.3 S 11 15 6 8 1026.2 1026.1 0.0
19/09:30pm 14.4 11.2 5.0 53 4.4 SSW 11 17 6 9 1025.8 1025.7 0.0
19/09:00pm 14.6 11.0 4.9 52 4.5 SSW 13 19 7 10 1025.5 1025.4 0.0
19/08:30pm 15.0 11.8 5.0 51 4.7 SSW 11 15 6 8 1025.4 1025.3 0.0
19/08:00pm 15.2 11.6 4.9 50 4.8 SSW 13 17 7 9 1025.1 1025.0 0.0
19/07:30pm 15.9 12.7 4.9 48 5.2 SSW 11 15 6 8 1024.7 1024.6 0.0
19/07:00pm 16.6 13.1 5.3 47 5.4 SSW 13 19 7 10 1024.2 1024.1 0.0
19/06:30pm 17.3 14.2 5.6 46 5.7 S 11 19 6 10 1023.8 1023.7 0.0
19/06:00pm 17.8 14.8 6.0 46 5.8 S 11 17 6 9 1023.5 1023.4 0.0
19/05:30pm 18.5 14.4 6.0 44 6.2 S 17 26 9 14 1023.0 1022.9 0.0
19/05:00pm 19.1 14.6 5.9 42 6.5 S 19 30 10 16 1022.6 1022.5 0.0
19/04:30pm 19.1 14.9 5.9 42 6.5 S 17 26 9 14 1022.4 1022.3 0.0
19/04:00pm 18.8 14.3 6.0 43 6.3 S 19 30 10 16 1022.5 1022.4 0.0
19/03:30pm 19.0 14.3 6.2 43 6.4 SSE 20 35 11 19 1022.2 1022.1 0.0
19/03:00pm 19.2 15.1 6.0 42 6.5 S 17 26 9 14 1022.1 1022.0 0.0
19/02:30pm 19.2 14.7 6.3 43 6.4 SSE 19 28 10 15 1021.9 1021.8 0.0
19/02:00pm 18.7 14.4 6.9 46 5.9 SSE 19 30 10 16 1021.9 1021.8 0.0
19/01:30pm 18.3 14.7 6.8 47 5.8 S 15 28 8 15 1022.0 1021.9 0.0
19/01:00pm 17.7 13.8 7.2 50 5.3 SSE 17 24 9 13 1022.2 1022.1 0.0
19/12:30pm 17.4 13.1 7.2 51 5.1 SSE 19 28 10 15 1022.5 1022.4 0.0
19/12:00pm 16.7 12.5 7.6 55 4.6 SSE 19 33 10 18 1022.8 1022.7 0.0
19/11:30am 15.9 11.7 8.2 60 3.9 S 20 32 11 17 1023.0 1022.9 0.0
19/11:00am 16.6 12.5 8.6 59 4.1 S 20 33 11 18 1022.9 1022.8 0.0
19/10:30am 15.3 11.1 8.3 63 3.5 SSE 20 30 11 16 1023.0 1022.9 0.0
19/10:00am 15.2 11.3 9.3 68 3.0 S 20 32 11 17 1023.0 1022.9 0.0
19/09:30am 14.0 10.3 9.6 75 2.3 S 19 33 10 18 1023.1 1023.0 0.0
19/09:18am 13.7 9.5 9.7 77 2.1 S 22 33 12 18 1023.0 1022.9 0.0
19/09:00am 14.1 10.5 10.7 80 1.8 S 20 32 11 17 1022.8 1022.7 -
19/08:43am 13.5 10.1 10.7 83 1.5 SSW 19 32 10 17 1022.6 1022.5 -
19/08:30am 13.1 9.8 11.0 87 1.1 SSW 19 30 10 16 1022.6 1022.5 -
19/08:00am 12.8 10.3 11.2 90 0.8 SSW 15 22 8 12 1022.4 1022.3 -
19/07:30am 12.8 10.7 11.0 89 0.9 S 13 20 7 11 1021.4 1021.3 -
19/07:00am 13.0 10.1 11.1 88 1.0 S 17 28 9 15 1021.1 1021.0 -
19/06:44am 13.1 10.3 11.3 89 1.0 S 17 30 9 16 1020.9 1020.8 -
19/06:37am 13.3 10.2 11.7 90 0.9 S 19 30 10 16 1020.9 1020.8 -
19/06:30am 13.4 10.3 12.1 92 0.7 SSW 20 35 11 19 1020.8 1020.7 -
19/06:17am 13.9 13.0 13.7 99 0.1 WSW 11 19 6 10 1020.5 1020.4 -
19/06:10am 13.9 13.0 13.7 99 0.1 WSW 11 20 6 11 1020.5 1020.4 -
19/06:00am 13.7 12.4 13.7 100 0.0 WSW 13 20 7 11 1020.4 1020.3 -
19/05:49am 13.7 12.2 13.2 97 0.3 WSW 13 20 7 11 1020.4 1020.3 -
19/05:30am 13.6 12.8 13.0 96 0.3 WSW 9 17 5 9 1020.2 1020.1 -
19/05:07am 13.6 12.5 13.0 96 0.3 WSW 11 15 6 8 1020.0 1019.9 -
19/05:00am 13.6 12.9 13.1 97 0.3 WSW 9 17 5 9 1020.0 1019.9 -
19/04:48am 13.6 12.7 12.7 94 0.5 WSW 9 15 5 8 1019.9 1019.8 -
19/04:30am 13.7 12.8 12.6 93 0.6 WSW 9 15 5 8 1019.9 1019.8 -
19/04:00am 13.5 12.2 12.4 93 0.6 WSW 11 13 6 7 1019.8 1019.7 -
19/03:54am 13.5 12.5 12.4 93 0.6 WSW 9 13 5 7 1019.7 1019.6 -
19/03:30am 13.5 12.3 12.7 95 0.4 WSW 11 15 6 8 1020.0 1019.9 -
19/03:00am 13.3 12.3 12.4 94 0.5 WSW 9 13 5 7 1020.3 1020.2 0.2
19/02:30am 13.2 11.9 11.4 89 1.0 WSW 9 13 5 7 1020.7 1020.6 -
19/02:00am 13.3 12.1 10.3 82 1.6 W 7 15 4 8 1020.9 1020.8 -
19/01:30am 13.4 11.8 8.9 74 2.3 W 7 13 4 7 1021.0 1020.9 -
19/01:00am 13.2 11.7 8.5 73 2.3 W 6 9 3 5 1021.4 1021.3 -
19/12:30am 14.0 12.1 9.0 72 2.5 WSW 9 15 5 8 1021.5 1021.4 -
19/12:00am 13.4 11.6 7.8 69 2.8 W 7 11 4 6 1022.0 1021.9 -
 
Date/Time
EST
Temp
°C
App
Temp
°C
Dew
Point
°C
Rel
Hum
%
Delta-T
°C
Wind Press
QNH
hPa
Press
MSL
hPa
Rain since
9am
mm
Dir  Spd
km/h
Gust
km/h
Spd
kts
Gust
kts
18/11:30pm 13.3 11.0 7.5 68 2.8 W 9 13 5 7 1022.2 1022.1 -
18/11:00pm 13.6 11.6 6.9 64 3.2 W 7 13 4 7 1022.5 1022.4 -
18/10:30pm 14.3 11.9 6.9 61 3.6 WSW 9 13 5 7 1022.6 1022.5 -
18/10:00pm 14.3 11.8 6.6 60 3.7 WSW 9 13 5 7 1022.7 1022.6 -
18/09:30pm 14.4 11.5 6.5 59 3.8 WSW 11 15 6 8 1022.6 1022.5 -
18/09:00pm 14.8 12.3 6.4 57 4.0 WSW 9 15 5 8 1022.4 1022.3 0.0
18/08:30pm 15.8 13.3 6.5 54 4.5 WSW 9 17 5 9 1022.4 1022.3 -
18/08:00pm 15.8 12.5 6.5 54 4.5 SW 13 19 7 10 1022.5 1022.4 -
18/07:30pm 16.3 13.0 6.4 52 4.8 SW 13 19 7 10 1022.3 1022.2 -
18/07:00pm 16.1 12.9 5.1 48 5.2 SW 11 15 6 8 1022.4 1022.3 -
18/06:30pm 16.8 12.4 4.8 45 5.7 SW 17 26 9 14 1022.2 1022.1 -
18/06:00pm 17.5 13.1 4.5 42 6.2 SW 17 30 9 16 1022.2 1022.1 -
18/05:30pm 18.3 13.8 4.1 39 6.7 SW 17 28 9 15 1022.1 1022.0 -
18/05:00pm 18.9 14.0 3.9 37 7.1 SW 19 28 10 15 1022.1 1022.0 -
18/04:30pm 19.6 15.4 3.7 35 7.6 SW 15 24 8 13 1022.2 1022.1 -
18/04:00pm 19.6 14.4 3.7 35 7.5 SW 20 33 11 18 1022.4 1022.3 -
18/03:30pm 19.7 14.5 3.4 34 7.7 SW 20 35 11 19 1022.5 1022.4 -
18/03:00pm 19.6 15.2 4.9 38 7.1 SSW 17 28 9 15 1022.7 1022.6 -
18/02:30pm 20.0 15.7 5.3 38 7.2 SW 17 33 9 18 1022.7 1022.6 -
18/02:00pm 19.4 14.7 5.1 39 6.9 SW 19 30 10 16 1022.9 1022.8 -
18/12:30pm 18.8 14.5 5.3 41 6.6 SW 17 30 9 16 1023.2 1023.1 -
18/09:00am 12.8 9.6 8.3 74 2.2 S 15 22 8 12 1026.0 1025.9 0.0
18/08:30am 11.0 8.0 7.9 81 1.5 S 13 22 7 12 1025.9 1025.8 0.0
18/08:00am 9.6 6.5 7.4 86 1.0 SSW 13 19 7 10 1025.5 1025.4 0.0
18/07:30am 8.7 6.3 7.2 90 0.7 SSW 9 17 5 9 1025.3 1025.2 0.0
18/07:00am 8.8 5.7 7.3 90 0.7 SSW 13 19 7 10 1025.0 1024.9 0.0
18/06:30am 8.9 6.1 7.0 88 0.9 SSW 11 15 6 8 1024.8 1024.7 0.0
18/06:00am 9.2 6.1 7.2 87 0.9 SSW 13 17 7 9 1024.8 1024.7 0.0
18/05:30am 9.2 6.8 7.0 86 1.0 SSW 9 15 5 8 1024.6 1024.5 0.0
18/05:00am 9.3 6.9 6.9 85 1.1 SSW 9 13 5 7 1024.4 1024.3 0.0
18/04:30am 9.6 7.1 6.7 82 1.4 S 9 11 5 6 1024.2 1024.1 0.0
18/04:00am 9.8 7.3 6.7 81 1.4 S 9 15 5 8 1024.1 1024.0 0.0
18/03:30am 10.3 7.9 6.8 79 1.7 S 9 13 5 7 1023.9 1023.8 0.0
18/03:00am 10.8 7.9 6.7 76 1.9 S 11 17 6 9 1024.0 1023.9 0.0
18/02:30am 11.5 8.3 6.8 73 2.2 S 13 20 7 11 1024.4 1024.3 0.0
18/02:00am 11.7 8.5 6.8 72 2.3 S 13 19 7 10 1024.5 1024.4 0.0
18/01:30am 11.4 8.0 5.7 68 2.6 SSW 13 17 7 9 1024.5 1024.4 0.0
18/01:00am 11.5 7.9 5.2 65 2.9 SSW 13 17 7 9 1024.6 1024.5 0.0
18/12:30am 12.4 8.9 5.3 62 3.3 SSW 13 22 7 12 1024.6 1024.5 0.0
18/12:00am 12.3 9.1 5.0 61 3.3 SW 11 17 6 9 1024.8 1024.7 0.0
 
Date/Time
EST
Temp
°C
App
Temp
°C
Dew
Point
°C
Rel
Hum
%
Delta-T
°C
Wind Press
QNH
hPa
Press
MSL
hPa
Rain since
9am
mm
Dir  Spd
km/h
Gust
km/h
Spd
kts
Gust
kts
17/11:30pm 12.7 9.8 4.7 58 3.7 SW 9 13 5 7 1025.0 1024.9 0.0
17/11:00pm 13.3 10.4 4.7 56 3.9 SW 9 15 5 8 1024.9 1024.8 0.0
17/10:30pm 13.5 10.6 4.6 55 4.1 SW 9 13 5 7 1025.0 1024.9 0.0
17/10:00pm 13.7 10.8 4.6 54 4.2 SW 9 13 5 7 1025.1 1025.0 0.0
17/09:30pm 14.2 10.9 4.8 53 4.4 SW 11 17 6 9 1025.0 1024.9 0.0
17/09:00pm 15.0 12.2 5.0 51 4.7 SW 9 15 5 8 1024.8 1024.7 0.0
17/08:30pm 15.7 12.5 5.0 49 5.1 SW 11 19 6 10 1024.7 1024.6 0.0
17/08:00pm 16.1 12.8 4.8 47 5.3 SW 11 17 6 9 1024.5 1024.4 0.0
17/07:30pm 16.6 13.3 4.3 44 5.8 SW 11 17 6 9 1024.1 1024.0 0.0
17/07:00pm 17.2 13.8 3.8 41 6.2 SW 11 15 6 8 1023.9 1023.8 0.0
17/06:30pm 18.5 14.6 3.6 37 7.0 SW 13 20 7 11 1023.6 1023.5 0.0
17/06:00pm 19.4 15.2 3.6 35 7.4 SW 15 24 8 13 1023.5 1023.4 0.0
17/05:30pm 20.6 16.0 3.8 33 8.1 WSW 17 30 9 16 1023.3 1023.2 0.0

Other formats

Comma delimited format used in spreadsheet applications
http://www.bom.gov.au/fwo/IDV60801/IDV60801.94693.axf

JavaScript Object Notation format (JSON) in row-major order
http://www.bom.gov.au/fwo/IDV60801/IDV60801.94693.json

Data quality

Most of these data are generated automatically and are frequently updated. Quality checks on data are not normally performed. It is possible for incorrect values to appear. Refer to information at About Latest Weather Observations and please check the disclaimer before using these data.